Time;durP1;ratioP1;P1;durP2;ratioP2;P2;SDS_P1;SDS_P2;PMS_P1;PMS_P2;Temp;Humidity;BMP_temperature;BMP_pressure;BME280_temperature;BME280_humidity;BME280_pressure;Samples;Min_cycle;Max_cycle;Signal;HPM_P1;HPM_P2
2020/12/05 00:00:39;;;;;;;95.63;37.23;;;;;;;-0.34;83.42;101500.70;1767063;80;21235;-86
2020/12/05 00:03:09;;;;;;;110.57;37.87;;;;;;;-0.39;83.50;101507.53;1740575;81;21890;-87
2020/12/05 00:05:36;;;;;;;80.90;34.53;;;;;;;-0.44;83.68;101506.94;1734367;81;21180;-89
2020/12/05 00:08:07;;;;;;;86.50;36.60;;;;;;;-0.36;83.34;101516.50;1677813;83;21844;-87
2020/12/05 00:10:36;;;;;;;135.17;46.57;;;;;;;-0.35;83.18;101509.03;1692019;84;21180;-89
2020/12/05 00:13:03;;;;;;;80.47;31.67;;;;;;;-0.41;83.42;101497.13;1653552;85;21157;-89
2020/12/05 00:15:31;;;;;;;72.63;30.90;;;;;;;-0.44;83.66;101506.94;1632318;86;21204;-89
2020/12/05 00:17:58;;;;;;;49.87;24.27;;;;;;;-0.46;83.45;101514.05;1681218;83;21195;-88
2020/12/05 00:20:25;;;;;;;58.33;29.80;;;;;;;-0.34;83.34;101512.48;1685922;83;21282;-89
2020/12/05 00:22:56;;;;;;;54.60;27.50;;;;;;;-0.59;83.57;101482.47;1697375;82;21168;-93
2020/12/05 00:25:25;;;;;;;71.80;33.60;;;;;;;-0.51;83.70;101506.47;1679809;80;21152;-87
2020/12/05 00:27:54;;;;;;;61.17;30.33;;;;;;;-0.38;83.61;101502.65;1676266;81;21211;-91
2020/12/05 00:30:28;;;;;;;75.43;34.27;;;;;;;-0.36;83.42;101506.49;1676913;82;21298;-91
2020/12/05 00:33:00;;;;;;;61.77;29.00;;;;;;;-0.48;83.57;101503.66;1622790;86;22243;-93
2020/12/05 00:35:29;;;;;;;92.37;37.87;;;;;;;-0.46;83.60;101517.50;1679298;83;21178;-88
2020/12/05 00:37:59;;;;;;;53.67;28.17;;;;;;;-0.39;83.33;101514.08;1714798;82;21191;-92
2020/12/05 00:40:27;;;;;;;46.87;23.00;;;;;;;-0.40;83.38;101511.06;1702251;82;21718;-91
2020/12/05 00:42:55;;;;;;;59.47;29.37;;;;;;;-0.47;83.66;101518.45;1726074;82;21159;-92
2020/12/05 00:45:25;;;;;;;84.40;37.20;;;;;;;-0.50;83.84;101512.54;1718061;82;21554;-93
2020/12/05 00:47:53;;;;;;;70.80;31.47;;;;;;;-0.34;83.47;101517.28;1716228;83;21198;-92
2020/12/05 00:50:26;;;;;;;58.80;27.10;;;;;;;-0.34;83.30;101517.28;1682904;84;21222;-90
2020/12/05 00:53:02;;;;;;;67.27;29.13;;;;;;;-0.42;83.41;101512.45;1707531;82;21223;-91
2020/12/05 00:55:32;;;;;;;60.90;31.67;;;;;;;-0.41;83.41;101509.39;1710838;83;21246;-93
2020/12/05 00:58:01;;;;;;;60.63;32.03;;;;;;;-0.32;83.15;101508.86;1726166;82;21606;-90
2020/12/05 01:00:29;;;;;;;60.50;28.53;;;;;;;-0.34;83.16;101512.05;1717292;82;21214;-90
2020/12/05 01:03:03;;;;;;;66.43;27.70;;;;;;;-0.43;83.42;101521.73;1703607;83;21231;-90
2020/12/05 01:05:32;;;;;;;79.90;33.93;;;;;;;-0.44;83.52;101516.94;1725267;82;21531;-91
2020/12/05 01:08:04;;;;;;;66.90;32.60;;;;;;;-0.31;83.23;101521.02;1691601;82;21290;-91
2020/12/05 01:10:34;;;;;;;79.80;33.07;;;;;;;-0.36;83.18;101511.26;1698557;82;21246;-90
2020/12/05 01:13:04;;;;;;;75.87;31.70;;;;;;;-0.46;83.45;101514.05;1724613;81;21225;-92
2020/12/05 01:15:32;;;;;;;77.47;34.40;;;;;;;-0.36;83.36;101500.78;1716422;82;21179;-93
2020/12/05 01:18:01;;;;;;;73.77;34.80;;;;;;;-0.31;83.15;101521.02;1707545;83;21365;-93
2020/12/05 01:20:29;;;;;;;102.23;39.10;;;;;;;-0.35;83.29;101519.52;1715997;83;21387;-92
2020/12/05 01:23:02;;;;;;;69.70;31.00;;;;;;;-0.42;83.46;101511.63;1728115;81;21280;-92
2020/12/05 01:25:34;;;;;;;80.77;34.03;;;;;;;-0.36;83.28;101513.05;1727820;82;21187;-89
2020/12/05 01:28:05;;;;;;;76.63;36.77;;;;;;;-0.36;83.09;101512.56;1722816;82;21205;-90
2020/12/05 01:30:34;;;;;;;68.93;35.90;;;;;;;-0.76;83.26;101446.78;1717654;82;21214;-88
2020/12/05 01:33:01;;;;;;;63.00;30.93;;;;;;;-0.44;83.59;101512.17;1723191;82;21260;-88
2020/12/05 01:35:29;;;;;;;73.43;33.17;;;;;;;-0.39;83.58;101503.59;1716514;82;21096;-86
2020/12/05 01:37:56;;;;;;;84.83;37.07;;;;;;;-0.30;83.24;101503.51;1661707;84;21172;-88
2020/12/05 01:40:27;;;;;;;76.83;33.87;;;;;;;-0.36;83.28;101504.71;1673687;83;22174;-86
2020/12/05 01:42:55;;;;;;;87.60;38.83;;;;;;;-0.42;83.48;101501.98;1668083;84;21201;-84
2020/12/05 01:45:22;;;;;;;91.33;39.20;;;;;;;-0.36;83.59;101503.41;1664070;84;21247;-87
2020/12/05 01:47:49;;;;;;;86.63;38.97;;;;;;;-0.22;83.35;101513.09;1670662;84;21865;-89
2020/12/05 01:50:16;;;;;;;80.17;31.50;;;;;;;-0.27;83.38;101505.48;1672872;84;21623;-87
2020/12/05 01:52:49;;;;;;;77.70;35.20;;;;;;;-0.30;83.63;101512.23;1641713;86;21202;-89
2020/12/05 01:55:16;;;;;;;82.20;36.50;;;;;;;-0.31;83.63;101498.75;1613552;86;21218;-87
2020/12/05 01:57:44;;;;;;;65.60;29.07;;;;;;;-0.18;83.28;101517.70;1645155;86;21218;-88
2020/12/05 02:00:21;;;;;;;58.17;29.63;;;;;;;-0.15;83.24;101514.87;1629492;86;21211;-91
2020/12/05 02:02:48;;;;;;;59.40;29.97;;;;;;;-0.30;83.54;101510.92;1627951;86;21199;-88
2020/12/05 02:05:30;;;;;;;92.73;39.47;;;;;;;-0.27;83.72;101504.18;1638329;85;21738;-86
2020/12/05 02:08:09;;;;;;;72.23;33.73;;;;;;;-0.15;83.49;101499.16;1630750;86;21188;-86
2020/12/05 02:10:40;;;;;;;93.80;39.50;;;;;;;-0.13;83.52;101494.66;1693205;83;21219;-87
2020/12/05 02:13:33;;;;;;;67.40;30.77;;;;;;;-0.16;83.72;101506.66;1706345;83;21227;-87
2020/12/05 02:16:00;;;;;;;98.97;38.50;;;;;;;-0.17;83.56;101503.64;1706724;83;21543;-87
2020/12/05 02:18:27;;;;;;;77.07;31.03;;;;;;;-0.03;83.14;101511.55;1682840;83;21765;-89
2020/12/05 02:21:00;;;;;;;88.37;34.33;;;;;;;-0.02;83.04;101511.91;1684309;83;21323;-88
2020/12/05 02:23:29;;;;;;;87.10;36.50;;;;;;;-0.12;83.13;101514.70;1700392;83;21202;-88
2020/12/05 02:26:06;;;;;;;57.63;25.07;;;;;;;-0.11;83.20;101523.80;1685567;83;21803;-87
2020/12/05 02:28:34;;;;;;;89.53;35.13;;;;;;;-0.08;82.83;101522.77;1702615;83;21216;-84
2020/12/05 02:31:01;;;;;;;106.00;40.50;;;;;;;-0.15;83.16;101524.05;1702919;83;21175;-84
2020/12/05 02:33:29;;;;;;;103.43;40.30;;;;;;;-0.23;83.48;101528.43;1711126;83;21219;-83
2020/12/05 02:35:56;;;;;;;123.77;47.37;;;;;;;-0.14;83.32;101527.06;1674288;82;21128;-86
2020/12/05 02:38:37;;;;;;;92.83;37.17;;;;;;;-0.04;83.04;101517.70;1659938;85;21192;-84
2020/12/05 02:41:05;;;;;;;121.37;46.53;;;;;;;-0.08;83.03;101518.83;1667502;84;21250;-86
2020/12/05 02:43:33;;;;;;;89.63;39.33;;;;;;;-0.15;83.24;101514.87;1668210;84;21226;-89
2020/12/05 02:46:03;;;;;;;70.70;30.93;;;;;;;-0.10;83.28;101539.05;1663146;85;21218;-88
2020/12/05 02:48:30;;;;;;;85.07;40.57;;;;;;;-0.02;82.82;101517.15;1664796;85;21204;-89
2020/12/05 02:50:59;;;;;;;107.23;46.20;;;;;;;-0.04;82.92;101528.20;1655395;84;21247;-89
2020/12/05 02:53:26;;;;;;;83.70;35.67;;;;;;;-0.11;83.24;101536.90;1629552;84;21374;-87
2020/12/05 02:55:54;;;;;;;128.93;46.67;;;;;;;-0.08;83.22;101524.91;1657609;84;21215;-89
2020/12/05 02:58:21;;;;;;;109.90;44.57;;;;;;;0.02;82.93;101533.54;1664401;84;21149;-88
2020/12/05 03:00:48;;;;;;;113.60;49.07;;;;;;;0.04;82.90;101540.41;1648810;85;21250;-88
2020/12/05 03:03:15;;;;;;;86.77;33.90;;;;;;;-0.03;83.09;101538.59;1659820;85;21242;-85
2020/12/05 03:05:42;;;;;;;89.60;40.10;;;;;;;-0.10;83.27;101527.25;1665361;83;21112;-85
2020/12/05 03:08:10;;;;;;;108.57;38.97;;;;;;;-0.06;83.11;101524.38;1694948;83;21200;-85
2020/12/05 03:10:39;;;;;;;85.70;40.27;;;;;;;0.03;82.88;101526.91;1686270;83;21158;-86
2020/12/05 03:13:06;;;;;;;97.23;41.70;;;;;;;0.01;82.95;101527.47;1681546;83;21219;-86
2020/12/05 03:15:35;;;;;;;81.90;38.97;;;;;;;-0.05;83.17;101531.29;1683114;84;21184;-83
2020/12/05 03:18:03;;;;;;;90.30;38.13;;;;;;;-0.27;83.06;101489.77;1689174;83;21231;-87
2020/12/05 03:20:30;;;;;;;86.20;37.17;;;;;;;0.01;82.89;101540.57;1690695;83;21697;-85
2020/12/05 03:22:57;;;;;;;66.17;30.90;;;;;;;-0.03;83.01;101528.11;1689611;84;21446;-84
2020/12/05 03:25:24;;;;;;;75.43;33.43;;;;;;;-0.09;83.21;101536.81;1678220;84;21685;-85
2020/12/05 03:27:53;;;;;;;75.33;29.67;;;;;;;-0.06;83.28;101539.23;1690282;83;21224;-83
2020/12/05 03:30:20;;;;;;;98.70;36.87;;;;;;;-0.02;83.07;101548.60;1680850;83;21236;-87
2020/12/05 03:32:49;;;;;;;;;;;;;;;-0.04;83.19;101528.20;1691658;83;21391;-84
2020/12/05 03:35:16;;;;;;;100.87;40.23;;;;;;;-0.10;83.41;101530.70;1696087;83;20294;-83
2020/12/05 03:37:45;;;;;;;;;;;;;;;-0.01;83.32;101531.95;1688417;83;21221;-86
2020/12/05 03:40:11;;;;;;;82.40;36.83;;;;;;;0.06;83.18;101528.48;1702410;84;20174;-83
2020/12/05 03:42:38;;;;;;;92.90;39.57;;;;;;;-0.14;83.56;101527.06;1698303;84;21166;-86
2020/12/05 03:45:06;;;;;;;82.30;36.57;;;;;;;-0.12;83.60;101532.58;1682087;84;21201;-85
2020/12/05 03:47:32;;;;;;;66.37;31.80;;;;;;;-0.02;83.26;101532.43;1696135;84;21201;-85
2020/12/05 03:50:03;;;;;;;94.90;36.10;;;;;;;-0.11;83.42;101532.97;1696426;83;21167;-85
2020/12/05 03:52:29;;;;;;;58.07;26.90;;;;;;;-0.27;83.92;101543.48;1684305;84;21347;-85
2020/12/05 03:54:56;;;;;;;76.73;36.20;;;;;;;-0.22;83.87;101533.59;1678681;84;21192;-86
2020/12/05 03:57:23;;;;;;;85.33;38.93;;;;;;;-0.13;83.63;101531.35;1683295;84;21350;-86
2020/12/05 03:59:49;;;;;;;85.50;36.33;;;;;;;-0.11;83.66;101523.80;1686028;84;21212;-87
2020/12/05 04:02:16;;;;;;;66.13;31.10;;;;;;;-0.44;83.90;101499.92;1692392;83;21616;-86
2020/12/05 04:04:43;;;;;;;70.37;32.57;;;;;;;-0.26;84.03;101533.87;1695015;83;21224;-86
2020/12/05 04:07:10;;;;;;;;;;;;;;;-0.11;83.72;101527.73;1658777;84;21581;-86
2020/12/05 04:09:38;;;;;;;68.05;32.35;;;;;;;-0.14;83.66;101537.55;1643351;85;20490;-86
2020/12/05 04:12:05;;;;;;;58.27;30.63;;;;;;;-0.25;84.11;101546.85;1663782;86;21236;-88
2020/12/05 04:14:34;;;;;;;73.30;33.90;;;;;;;-0.15;84.00;101547.19;1662973;84;21269;-87
2020/12/05 04:17:01;;;;;;;73.90;32.73;;;;;;;-0.06;83.87;101547.10;1652494;85;21222;-85
2020/12/05 04:19:37;;;;;;;79.33;34.43;;;;;;;-0.08;83.98;101552.42;1820363;77;22860;-87
2020/12/05 04:22:04;;;;;;;69.90;30.30;;;;;;;-0.15;83.96;101555.50;1782507;77;21108;-85
2020/12/05 04:24:32;;;;;;;54.43;28.90;;;;;;;-0.07;83.64;101548.05;1765796;79;21176;-86
2020/12/05 04:26:59;;;;;;;50.70;25.70;;;;;;;-0.09;83.56;101560.41;1778003;78;21354;-85
2020/12/05 04:29:27;;;;;;;56.03;29.90;;;;;;;-0.26;83.85;101546.97;1761788;80;21179;-86
2020/12/05 04:31:54;;;;;;;46.87;24.43;;;;;;;-0.27;84.10;101557.05;1779832;78;21249;-84
2020/12/05 04:34:21;;;;;;;75.40;34.50;;;;;;;-0.20;83.79;101555.30;1757369;80;21174;-86
2020/12/05 04:36:49;;;;;;;61.13;31.43;;;;;;;-0.22;83.85;101549.78;1723703;80;21437;-87
2020/12/05 04:39:16;;;;;;;63.50;34.27;;;;;;;-0.29;84.11;101540.58;1694860;81;21293;-86
2020/12/05 04:41:43;;;;;;;57.70;26.27;;;;;;;-0.20;83.96;101546.13;1702050;81;21198;-86
2020/12/05 04:44:10;;;;;;;60.23;30.90;;;;;;;-0.15;83.65;101566.84;1679668;82;21159;-87
2020/12/05 04:46:37;;;;;;;43.03;24.40;;;;;;;-0.25;83.73;101540.30;1702945;81;21202;-86
2020/12/05 04:49:07;;;;;;;56.13;30.80;;;;;;;-0.26;83.86;101551.73;1691797;83;21382;-86
2020/12/05 04:51:52;;;;;;;55.17;29.37;;;;;;;-0.18;83.71;101543.91;1710683;81;21142;-83
2020/12/05 04:54:26;;;;;;;46.47;25.73;;;;;;;-0.17;83.67;101549.50;1695520;81;21200;-84
2020/12/05 04:56:55;;;;;;;57.13;26.00;;;;;;;-0.28;83.90;101544.91;1713090;81;21139;-85
2020/12/05 04:59:22;;;;;;;55.67;29.13;;;;;;;-0.20;83.80;101563.16;1701862;81;21189;-85
2020/12/05 05:01:50;;;;;;;58.30;31.50;;;;;;;-0.16;83.59;101552.04;1695091;81;21175;-85
2020/12/05 05:04:17;;;;;;;72.20;33.30;;;;;;;-0.19;83.85;101550.89;1697781;81;21672;-85
2020/12/05 05:06:44;;;;;;;65.50;31.80;;;;;;;-0.19;84.06;101558.76;1697338;81;21081;-84
2020/12/05 05:09:12;;;;;;;42.10;24.30;;;;;;;-0.10;83.90;101562.16;1705975;83;21212;-84
2020/12/05 05:11:54;;;;;;;53.57;27.10;;;;;;;-0.05;83.18;101566.67;1699294;83;21207;-84
2020/12/05 05:16:37;;;;;;;63.10;29.33;;;;;;;-0.12;83.56;101573.67;1851421;76;23066;-84
2020/12/05 05:19:22;;;;;;;69.00;28.47;;;;;;;-0.06;83.40;101569.37;1816760;77;21160;-83
2020/12/05 05:21:51;;;;;;;101.37;41.63;;;;;;;0.01;83.29;101572.50;1763325;80;21199;-85
2020/12/05 05:24:20;;;;;;;80.27;35.13;;;;;;;-0.07;83.36;101565.09;1808813;77;21282;-87
2020/12/05 05:27:07;;;;;;;94.77;38.33;;;;;;;-0.12;83.52;101567.96;1815033;78;21180;-83
2020/12/05 05:29:41;;;;;;;79.63;32.23;;;;;;;-0.06;83.28;101581.17;1831922;77;21160;-85
2020/12/05 05:32:11;;;;;;;74.73;33.80;;;;;;;-0.05;82.98;101588.95;1819644;77;21137;-87
2020/12/05 05:34:36;;;;;;;95.80;35.73;;;;;;;-0.18;83.27;101581.91;1782855;78;21172;-85
2020/12/05 05:37:19;;;;;;;72.77;26.87;;;;;;;-0.26;83.57;101591.04;1763528;77;21105;-86
2020/12/05 05:39:52;;;;;;;63.73;29.17;;;;;;;-0.27;83.50;101578.86;1761126;80;21168;-87
2020/12/05 05:42:30;;;;;;;94.63;39.07;;;;;;;-0.15;83.30;101584.33;1732614;81;21273;-88
2020/12/05 05:45:20;;;;;;;81.43;33.70;;;;;;;-0.15;83.34;101579.09;1745678;81;21188;-86
2020/12/05 05:47:51;;;;;;;97.17;36.37;;;;;;;-0.23;83.54;101562.05;1750104;80;21180;-86
2020/12/05 05:50:23;;;;;;;69.40;28.20;;;;;;;-0.22;83.69;101568.96;1761063;80;21164;-87
2020/12/05 05:52:57;;;;;;;68.13;31.67;;;;;;;-0.11;83.41;101567.52;1748402;80;21169;-87
2020/12/05 05:55:47;;;;;;;75.17;31.10;;;;;;;-0.09;83.36;101574.82;1765421;80;21186;-86
2020/12/05 05:58:20;;;;;;;75.07;30.03;;;;;;;-0.19;83.52;101582.34;1752535;81;21772;-87
2020/12/05 06:00:51;;;;;;;63.03;29.07;;;;;;;-0.16;83.60;101569.55;1759614;81;21193;-87
2020/12/05 06:03:30;;;;;;;45.80;23.17;;;;;;;-0.06;83.11;101579.87;1749249;80;21184;-84
2020/12/05 06:05:59;;;;;;;76.30;31.73;;;;;;;-0.22;83.17;101587.30;1763211;80;21044;-85
2020/12/05 06:08:27;;;;;;;46.40;23.93;;;;;;;-0.22;83.40;101575.98;1780323;80;21605;-87
2020/12/05 06:11:05;;;;;;;74.53;31.80;;;;;;;-0.09;83.23;101576.13;1746860;81;21314;-85
2020/12/05 06:13:33;;;;;;;47.33;22.75;;;;;;;-0.06;83.17;101583.80;1712961;82;21340;-88
2020/12/05 06:16:02;;;;;;;58.47;28.03;;;;;;;-0.13;83.33;101585.95;1703771;84;21191;-87
2020/12/05 06:18:30;;;;;;;54.23;26.77;;;;;;;-0.18;83.33;101579.28;1763948;79;21190;-90
2020/12/05 06:20:58;;;;;;;80.43;32.77;;;;;;;-0.13;83.04;101582.45;1757314;80;21202;-90
2020/12/05 06:23:32;;;;;;;102.63;38.60;;;;;;;-0.06;82.90;101600.39;1730885;82;21211;-86
2020/12/05 06:26:02;;;;;;;57.40;28.13;;;;;;;-0.16;83.09;101588.73;1746896;80;21176;-87
2020/12/05 06:28:31;;;;;;;50.73;25.03;;;;;;;-0.21;83.29;101599.49;1757354;80;21770;-87
2020/12/05 06:31:03;;;;;;;53.73;26.07;;;;;;;-0.17;83.13;101603.23;1764063;80;21141;-83
2020/12/05 06:33:44;;;;;;;74.40;33.03;;;;;;;-0.18;83.06;101601.08;1768170;79;21267;-86
2020/12/05 06:36:48;;;;;;;77.93;27.80;;;;;;;-0.20;83.42;101614.73;1719647;81;24437;-88
2020/12/05 06:39:43;;;;;;;81.07;34.17;;;;;;;-0.17;83.23;101594.92;1698085;82;21214;-84
2020/12/05 06:42:20;;;;;;;66.77;26.33;;;;;;;-0.05;83.08;101599.91;1691330;82;21198;-85
2020/12/05 06:44:47;;;;;;;100.20;40.30;;;;;;;-0.18;83.22;101601.08;1708048;82;21269;-85
2020/12/05 06:47:24;;;;;;;72.13;28.27;;;;;;;-0.23;83.46;101593.50;1707963;82;21986;-85
2020/12/05 06:49:53;;;;;;;88.43;35.83;;;;;;;-0.20;83.53;101615.58;1708366;82;21183;-87
2020/12/05 06:52:30;;;;;;;105.20;39.53;;;;;;;-0.11;83.33;101615.53;1707277;84;21191;-84
2020/12/05 06:55:07;;;;;;;97.17;37.27;;;;;;;-0.09;83.32;101608.89;1711425;82;21148;-87
2020/12/05 06:57:35;;;;;;;61.07;30.17;;;;;;;-0.15;83.52;101613.16;1707298;82;21790;-87
2020/12/05 07:00:21;;;;;;;56.90;28.23;;;;;;;-0.15;83.63;101617.95;1708708;82;21155;-86
2020/12/05 07:02:57;;;;;;;68.77;30.60;;;;;;;-0.05;83.37;101624.34;1693289;84;21204;-85
2020/12/05 07:05:26;;;;;;;73.33;30.23;;;;;;;-0.05;83.04;101616.48;1698686;82;21426;-85
2020/12/05 07:08:38;;;;;;;;;;;;;;;;;;;;;
2020/12/05 07:26:12;;;;;;;87.30;36.30;;;;;;;-0.23;84.17;101622.32;1731671;80;22095;-81
2020/12/05 07:28:45;;;;;;;77.13;35.10;;;;;;;-0.26;84.30;101647.37;1751798;81;21724;-83
2020/12/05 07:31:45;;;;;;;74.27;33.13;;;;;;;-0.06;83.89;101660.67;1780323;79;23159;-82
2020/12/05 07:34:19;;;;;;;69.47;28.83;;;;;;;-0.18;83.88;101653.97;1730508;81;21207;-80
2020/12/05 07:36:47;;;;;;;66.10;32.97;;;;;;;-0.24;84.15;101670.88;1702120;81;21152;-83
2020/12/05 07:39:15;;;;;;;87.30;34.63;;;;;;;-0.29;84.36;101663.26;1691825;83;21215;-88
2020/12/05 07:41:50;;;;;;;80.40;33.03;;;;;;;-0.16;83.99;101635.07;1690765;83;21198;-85
2020/12/05 07:44:20;;;;;;;82.13;36.80;;;;;;;-0.09;83.72;101650.83;1705177;83;21192;-83
2020/12/05 07:46:46;;;;;;;88.00;32.37;;;;;;;-0.16;83.97;101643.77;1691133;83;21321;-84
2020/12/05 07:49:16;;;;;;;90.30;36.17;;;;;;;-0.16;84.06;101652.10;1716788;83;21322;-83
2020/12/05 07:51:46;;;;;;;68.13;30.97;;;;;;;-0.09;83.79;101660.84;1709426;82;21162;-86
2020/12/05 07:54:14;;;;;;;71.90;30.17;;;;;;;-0.02;83.45;101660.01;1687094;83;21203;-88
2020/12/05 07:56:40;;;;;;;73.80;33.17;;;;;;;-0.05;83.51;101675.94;1693111;83;21204;-84
2020/12/05 07:59:10;;;;;;;68.70;27.47;;;;;;;-0.09;83.59;101667.87;1701376;83;21211;-86
2020/12/05 08:02:05;;;;;;;48.30;23.80;;;;;;;-0.06;83.23;101686.02;1714797;83;21174;-83
2020/12/05 08:04:56;;;;;;;63.33;30.00;;;;;;;-0.07;83.23;101659.45;1698046;83;21183;-86
2020/12/05 08:07:41;;;;;;;64.37;31.33;;;;;;;-0.13;83.53;101685.98;1661227;84;21155;-85
2020/12/05 08:10:12;;;;;;;49.70;26.43;;;;;;;-0.01;83.27;101689.23;1671090;84;21262;-88
2020/12/05 08:13:16;;;;;;;55.40;28.37;;;;;;;-0.04;83.15;101681.09;1663577;84;21219;-85
2020/12/05 08:15:52;;;;;;;59.30;31.20;;;;;;;-0.13;83.47;101686.85;1664195;84;21192;-84
2020/12/05 08:18:29;;;;;;;57.53;28.23;;;;;;;-0.08;83.54;101678.72;1669538;84;21701;-85
2020/12/05 08:20:57;;;;;;;66.00;31.17;;;;;;;0.04;83.31;101686.34;1668322;84;21179;-86
2020/12/05 08:23:32;;;;;;;99.77;35.70;;;;;;;0.06;83.24;101719.87;1675659;84;21227;-86
2020/12/05 08:26:14;;;;;;;68.30;29.67;;;;;;;-0.02;83.30;101688.84;1661651;84;21799;-86
2020/12/05 08:28:48;;;;;;;53.00;28.00;;;;;;;-0.02;83.32;101683.16;1667366;82;21271;-86
2020/12/05 08:31:16;;;;;;;70.47;31.77;;;;;;;0.09;82.95;101698.26;1651603;84;21306;-85
2020/12/05 08:33:44;;;;;;;95.07;38.97;;;;;;;0.01;82.72;101687.84;1646477;85;21245;-86
2020/12/05 08:36:31;;;;;;;67.67;31.37;;;;;;;-0.06;83.12;101703.06;1655802;82;21137;-84
2020/12/05 08:39:12;;;;;;;121.87;40.43;;;;;;;0.03;82.68;101704.33;1633610;85;21177;-84
2020/12/05 08:41:49;;;;;;;123.77;45.20;;;;;;;0.00;82.64;101690.94;1655052;85;22291;-86
2020/12/05 08:44:20;;;;;;;89.77;39.37;;;;;;;-0.09;83.11;101690.98;1648687;85;21211;-83
2020/12/05 08:47:07;;;;;;;105.20;40.70;;;;;;;0.01;82.84;101692.61;1644681;85;21556;-88
2020/12/05 08:49:42;;;;;;;88.47;38.23;;;;;;;0.07;82.76;101692.27;1653998;85;21717;-87
2020/12/05 08:52:24;;;;;;;;;;;;;;;;;;;;;
2020/12/05 08:55:34;;;;;;;123.17;46.03;;;;;;;0.13;82.71;101712.05;1805276;78;23007;-86
2020/12/05 08:58:07;;;;;;;77.93;32.60;;;;;;;0.09;82.50;101713.16;1722965;82;21174;-86
2020/12/05 09:00:35;;;;;;;99.70;42.13;;;;;;;-0.06;82.85;101685.58;1722824;82;21190;-87
2020/12/05 09:03:03;;;;;;;80.47;38.20;;;;;;;-0.01;82.91;101689.23;1691572;84;21229;-87
2020/12/05 09:06:05;;;;;;;80.28;47.65;;;;;;;0.15;82.66;101693.13;1719576;80;32266;-86
2020/12/05 09:08:48;;;;;;;89.97;41.27;;;;;;;0.32;82.18;101692.16;1691017;83;21368;-86
2020/12/05 09:11:21;;;;;;;76.17;32.27;;;;;;;0.44;81.58;101703.27;1683538;84;21726;-86
2020/12/05 09:16:52;;;;;;;87.03;40.10;;;;;;;0.50;81.31;101683.70;1805032;77;23635;-87
2020/12/05 09:19:32;;;;;;;95.40;42.57;;;;;;;0.35;81.53;101686.75;1761276;80;21325;-84
2020/12/05 09:22:01;;;;;;;89.30;34.97;;;;;;;0.30;81.71;101682.23;1757870;80;21261;-85
2020/12/05 09:24:33;;;;;;;70.00;33.80;;;;;;;0.38;81.35;101678.24;1759736;80;21233;-86
2020/12/05 09:27:17;;;;;;;89.65;51.77;;;;;;;0.39;81.33;101680.39;1824154;76;28153;-87
2020/12/05 09:29:48;;;;;;;73.97;36.70;;;;;;;0.53;81.07;101685.69;1847904;75;21135;-86
2020/12/05 09:32:17;;;;;;;77.33;34.90;;;;;;;0.62;80.22;101677.72;1856479;76;21131;-84
2020/12/05 09:34:46;;;;;;;75.23;32.13;;;;;;;0.65;80.16;101681.96;1853292;76;21121;-84
2020/12/05 09:37:15;;;;;;;68.13;31.73;;;;;;;0.46;79.85;101699.25;1779041;77;21510;-86
2020/12/05 09:39:42;;;;;;;112.13;40.53;;;;;;;0.31;80.43;101687.39;1772931;79;21176;-86
2020/12/05 09:42:22;;;;;;;82.77;36.73;;;;;;;0.22;80.88;101701.51;1771396;79;21163;-82
2020/12/05 09:44:56;;;;;;;66.43;29.33;;;;;;;0.26;80.83;101685.97;1755066;79;21159;-87
2020/12/05 09:47:23;;;;;;;67.53;33.13;;;;;;;0.18;80.94;101680.70;1744618;80;21379;-86
2020/12/05 09:49:50;;;;;;;73.27;33.87;;;;;;;0.03;81.51;101685.51;1734012;81;21164;-85
2020/12/05 09:52:17;;;;;;;57.10;29.63;;;;;;;0.00;81.73;101689.63;1711697;83;21852;-87
2020/12/05 09:54:44;;;;;;;71.10;32.73;;;;;;;0.09;81.54;101668.11;1740162;80;21180;-84
2020/12/05 09:57:11;;;;;;;107.90;40.87;;;;;;;0.06;81.62;101658.26;1714642;83;21194;-85
2020/12/05 09:59:40;;;;;;;88.87;38.67;;;;;;;-0.02;81.98;101660.01;1713860;82;21220;-86
2020/12/05 10:02:10;;;;;;;99.23;43.23;;;;;;;0.05;82.00;101665.29;1713321;82;21318;-86
2020/12/05 10:04:38;;;;;;;71.43;37.50;;;;;;;0.13;81.72;101677.95;1726180;81;21171;-85
2020/12/05 10:07:06;;;;;;;66.63;34.80;;;;;;;0.10;81.69;101709.14;1709415;80;21348;-84
2020/12/05 10:09:34;;;;;;;49.57;28.00;;;;;;;-0.10;81.91;101672.72;1716324;82;21639;-87
2020/12/05 10:12:01;;;;;;;66.27;34.27;;;;;;;-0.09;81.81;101695.39;1738172;81;21196;-83
2020/12/05 10:14:27;;;;;;;;;;;;;;;-0.11;81.77;101685.46;1744839;80;21604;-85
2020/12/05 10:16:55;;;;;;;64.85;30.80;;;;;;;-0.15;81.90;101690.03;1737225;81;20215;-84
2020/12/05 10:19:25;;;;;;;50.53;27.03;;;;;;;-0.29;82.11;101694.70;1745390;81;21614;-87
2020/12/05 10:21:59;;;;;;;;;;;;;;;-0.22;81.95;101690.81;1748862;81;21152;-85
2020/12/05 10:24:42;;;;;;;83.17;36.50;;;;;;;-0.13;81.79;101688.16;1747849;81;20236;-87
2020/12/05 10:27:09;;;;;;;62.90;34.00;;;;;;;-0.25;81.86;101687.05;1725961;81;21203;-86
2020/12/05 10:29:35;;;;;;;;;;;;;;;-0.27;82.01;101698.55;1717740;82;21625;-85
2020/12/05 10:32:02;;;;;;;59.43;31.47;;;;;;;-0.27;81.92;101690.69;1724208;81;20184;-86
2020/12/05 10:34:31;;;;;;;62.37;33.17;;;;;;;-0.23;81.65;101694.39;1737223;81;21253;-85
2020/12/05 10:36:59;;;;;;;56.97;31.57;;;;;;;-0.21;81.58;101701.70;1700844;80;21124;-84
2020/12/05 10:39:28;;;;;;;107.57;39.10;;;;;;;-0.26;81.63;101691.92;1752301;80;21161;-83
2020/12/05 10:41:57;;;;;;;89.53;35.97;;;;;;;-0.30;81.79;101703.51;1729526;81;21210;-85
2020/12/05 10:44:24;;;;;;;83.70;36.40;;;;;;;-0.45;81.63;101668.99;1725250;82;21192;-87
2020/12/05 10:46:51;;;;;;;;;;;;;;;-0.15;81.44;101719.30;1769736;80;21158;-85
2020/12/05 10:49:18;;;;;;;82.97;33.33;;;;;;;-0.27;81.55;101699.86;1768150;80;20682;-83
2020/12/05 10:51:49;;;;;;;59.10;29.60;;;;;;;-0.56;82.18;101653.85;1768813;80;21205;-84
2020/12/05 10:54:16;;;;;;;58.07;27.33;;;;;;;-0.31;81.78;101713.59;1760985;80;21176;-88
2020/12/05 10:56:43;;;;;;;58.27;27.17;;;;;;;-0.20;81.38;101698.59;1767169;80;22062;-84
2020/12/05 10:59:10;;;;;;;54.67;30.77;;;;;;;-0.30;81.40;101703.51;1770256;80;21205;-84
2020/12/05 11:01:39;;;;;;;71.33;32.03;;;;;;;-0.33;81.66;101706.77;1765317;80;21592;-86
2020/12/05 11:04:11;;;;;;;60.70;31.37;;;;;;;-0.30;81.63;101733.64;1752013;80;21217;-85
2020/12/05 11:06:39;;;;;;;43.67;24.07;;;;;;;-0.29;81.26;101722.22;1761114;80;21213;-84
2020/12/05 11:09:09;;;;;;;43.17;23.47;;;;;;;-0.44;81.28;101713.89;1747868;80;21201;-83
2020/12/05 11:11:36;;;;;;;57.17;28.37;;;;;;;-0.44;81.43;101726.98;1750127;80;21154;-86
2020/12/05 11:14:03;;;;;;;51.87;27.27;;;;;;;-0.43;81.31;101730.00;1754273;80;21158;-86
2020/12/05 11:16:31;;;;;;;75.50;33.47;;;;;;;-0.55;81.59;101728.02;1716516;82;21184;-85
2020/12/05 11:19:11;;;;;;;79.73;36.10;;;;;;;-0.47;81.63;101721.45;1722899;79;21133;-91
2020/12/05 11:25:37;;;;;;;63.80;30.00;;;;;;;-0.40;81.39;101728.50;1694587;83;22427;-93
2020/12/05 11:59:08;;;;;;;75.80;35.03;;;;;;;-0.57;81.16;101752.14;1763826;79;21174;-94
2020/12/05 12:05:47;;;;;;;59.83;31.57;;;;;;;-0.66;81.30;101741.69;1695149;81;21207;-93
2020/12/05 12:09:42;;;;;;;;;;;;;;;;;;;;;
2020/12/05 12:31:08;;;;;;;;;;;;;;;;;;;;;
2020/12/05 12:34:13;;;;;;;47.33;23.73;;;;;;;-0.47;79.37;101763.81;1886015;76;23503;-92
2020/12/05 12:37:36;;;;;;;42.23;26.47;;;;;;;-0.62;79.66;101762.41;1781274;78;21529;-92
2020/12/05 14:14:10;;;;;;;75.83;27.93;;;;;;;-1.26;80.74;101819.33;1639662;83;21132;-92
2020/12/05 14:17:18;;;;;;;69.90;28.70;;;;;;;-1.32;80.74;101816.55;1663735;81;21294;-91
2020/12/05 14:20:06;;;;;;;;;;;;;;;;;;;;;
2020/12/05 15:28:16;;;;;;;37.87;19.63;;;;;;;-1.04;80.61;101869.69;1618423;84;21252;-93
2020/12/05 15:35:22;;;;;;;;;;;;;;;;;;;;;
2020/12/05 15:50:49;;;;;;;40.00;18.10;;;;;;;-0.99;81.49;101859.84;1627229;81;21218;-90
2020/12/05 16:07:29;;;;;;;;;;;;;;;;;;;;;
2020/12/05 16:11:04;;;;;;;58.90;24.33;;;;;;;-0.63;81.30;101858.07;1685237;81;21163;-95
2020/12/05 16:14:28;;;;;;;;;;;;;;;;;;;;;
2020/12/05 16:17:23;;;;;;;61.10;24.72;;;;;;;-0.71;81.86;101840.14;1725183;82;21129;-92